Time;durP1;ratioP1;P1;durP2;ratioP2;P2;SDS_P1;SDS_P2;PMS_P1;PMS_P2;Temp;Humidity;BMP_temperature;BMP_pressure;BME280_temperature;BME280_humidity;BME280_pressure;Samples;Min_cycle;Max_cycle;Signal;HPM_P1;HPM_P2
2024/01/04 00:02:23;;;;;;;2.83;0.43;;;6.70;99.90;;;;;;5055327;28;20072;-68
2024/01/04 00:04:55;;;;;;;2.50;0.47;;;6.70;99.90;;;;;;5053531;28;20049;-68
2024/01/04 00:07:27;;;;;;;1.58;0.50;;;6.70;99.90;;;;;;5056736;28;20040;-68
2024/01/04 00:09:54;;;;;;;2.38;0.50;;;6.70;99.90;;;;;;5059426;28;20033;-67
2024/01/04 00:12:22;;;;;;;1.80;0.40;;;6.70;99.90;;;;;;5060881;28;20127;-67
2024/01/04 00:14:54;;;;;;;1.38;0.40;;;6.70;99.90;;;;;;5056858;28;20661;-68
2024/01/04 00:17:26;;;;;;;2.83;0.45;;;6.80;99.90;;;;;;5049405;28;20138;-67
2024/01/04 00:19:58;;;;;;;3.83;0.88;;;6.80;99.90;;;;;;5050396;28;20045;-68
2024/01/04 00:22:30;;;;;;;4.00;0.47;;;6.90;99.90;;;;;;5077651;28;20045;-67
2024/01/04 00:25:03;;;;;;;2.17;0.65;;;6.90;99.90;;;;;;5082386;28;20135;-67
2024/01/04 00:27:35;;;;;;;3.35;0.45;;;7.00;99.90;;;;;;5055672;28;20043;-67
2024/01/04 00:30:07;;;;;;;2.25;0.40;;;7.00;99.90;;;;;;5055830;28;20515;-67
2024/01/04 00:32:39;;;;;;;2.28;0.50;;;7.00;99.90;;;;;;5057260;28;20045;-67
2024/01/04 00:35:06;;;;;;;5.35;0.70;;;7.10;99.90;;;;;;5040761;28;20052;-68
2024/01/04 00:37:38;;;;;;;2.45;0.43;;;7.10;99.90;;;;;;5058252;28;20512;-67
2024/01/04 00:40:05;;;;;;;2.88;0.40;;;7.00;99.90;;;;;;5039103;28;20049;-67
2024/01/04 00:42:32;;;;;;;2.17;0.40;;;7.00;99.90;;;;;;5052553;28;20048;-67
2024/01/04 00:45:05;;;;;;;1.95;0.80;;;7.00;99.90;;;;;;5052451;28;20110;-67
2024/01/04 00:47:36;;;;;;;1.65;0.57;;;7.00;99.90;;;;;;5034060;28;20110;-67
2024/01/04 00:50:04;;;;;;;3.20;0.40;;;7.00;99.90;;;;;;5044529;28;20051;-67
2024/01/04 00:52:36;;;;;;;4.93;0.52;;;6.90;99.90;;;;;;5028474;28;20041;-67
2024/01/04 00:55:08;;;;;;;0.95;0.35;;;6.90;99.90;;;;;;5056046;28;20459;-67
2024/01/04 00:57:40;;;;;;;1.30;0.50;;;7.00;99.90;;;;;;5043866;28;20089;-68
2024/01/04 01:00:12;;;;;;;1.52;0.80;;;7.10;99.90;;;;;;5063228;28;20041;-67
2024/01/04 01:02:45;;;;;;;5.13;0.63;;;7.10;99.90;;;;;;5059012;28;20036;-67
2024/01/04 01:05:17;;;;;;;1.48;0.30;;;7.10;99.90;;;;;;5057867;28;20041;-67
2024/01/04 01:07:49;;;;;;;3.83;0.55;;;7.10;99.90;;;;;;5053097;28;20060;-67
2024/01/04 01:10:16;;;;;;;3.25;0.50;;;7.10;99.90;;;;;;5052826;28;20569;-67
2024/01/04 01:12:48;;;;;;;0.80;0.57;;;7.10;99.90;;;;;;5061067;28;20502;-67
2024/01/04 01:15:20;;;;;;;2.75;0.50;;;7.10;99.90;;;;;;5052332;28;20045;-67
2024/01/04 01:17:52;;;;;;;1.45;0.45;;;7.20;99.90;;;;;;5054376;28;20048;-68
2024/01/04 01:20:18;;;;;;;3.10;0.30;;;7.20;99.90;;;;;;5067534;28;20523;-67
2024/01/04 01:22:46;;;;;;;2.38;0.40;;;7.20;99.90;;;;;;5064208;28;20127;-67
2024/01/04 01:25:18;;;;;;;2.95;0.50;;;7.20;99.90;;;;;;5061495;28;20044;-67
2024/01/04 01:27:50;;;;;;;2.50;0.32;;;7.30;99.90;;;;;;5059811;28;20525;-66
2024/01/04 01:30:22;;;;;;;3.20;0.30;;;7.30;99.90;;;;;;5064072;28;20463;-66
2024/01/04 01:32:54;;;;;;;2.42;0.60;;;7.30;99.90;;;;;;5049652;28;20512;-67
2024/01/04 01:35:26;;;;;;;3.70;0.40;;;7.30;99.90;;;;;;5048639;28;20576;-66
2024/01/04 01:37:58;;;;;;;4.07;0.50;;;7.30;99.90;;;;;;5052005;28;20047;-67
2024/01/04 01:40:30;;;;;;;2.88;0.90;;;7.20;99.90;;;;;;5035663;28;20052;-66
2024/01/04 01:43:01;;;;;;;3.22;0.57;;;7.20;99.90;;;;;;5054485;28;20060;-67
2024/01/04 01:45:33;;;;;;;3.80;0.35;;;7.30;99.90;;;;;;5056288;28;20060;-66
2024/01/04 01:48:07;;;;;;;1.88;0.50;;;7.30;99.90;;;;;;5048415;28;20153;-67
2024/01/04 01:50:39;;;;;;;5.45;0.60;;;7.20;99.90;;;;;;5078040;28;20052;-68
2024/01/04 01:53:12;;;;;;;3.17;0.50;;;7.20;99.90;;;;;;5078197;28;20041;-67
2024/01/04 01:55:39;;;;;;;2.15;1.02;;;7.20;99.90;;;;;;5061932;28;20036;-67
2024/01/04 01:58:11;;;;;;;2.50;1.02;;;7.10;99.90;;;;;;5053952;28;20136;-66
2024/01/04 02:00:38;;;;;;;3.70;0.63;;;7.10;99.90;;;;;;5054419;28;20056;-66
2024/01/04 02:03:10;;;;;;;3.05;0.50;;;7.20;99.90;;;;;;5084401;28;20044;-66
2024/01/04 02:05:38;;;;;;;2.15;0.60;;;7.20;99.90;;;;;;5069371;28;20063;-66
2024/01/04 02:08:10;;;;;;;2.03;0.60;;;7.10;99.90;;;;;;5067959;28;20467;-67
2024/01/04 02:10:41;;;;;;;3.80;0.85;;;7.20;99.90;;;;;;5065756;28;20523;-67
2024/01/04 02:13:14;;;;;;;1.00;0.40;;;7.10;99.90;;;;;;5054773;28;20128;-66
2024/01/04 02:15:47;;;;;;;3.20;0.95;;;7.20;99.90;;;;;;5095468;28;20064;-66
2024/01/04 02:18:14;;;;;;;3.70;0.80;;;7.20;99.90;;;;;;5059082;28;20127;-67
2024/01/04 02:20:41;;;;;;;4.43;1.90;;;7.10;99.90;;;;;;5060481;28;20653;-66
2024/01/04 02:23:15;;;;;;;3.20;0.90;;;7.10;99.90;;;;;;5058989;28;20045;-67
2024/01/04 02:25:47;;;;;;;1.63;1.13;;;7.10;99.90;;;;;;5079691;28;20045;-67
2024/01/04 02:28:13;;;;;;;2.25;0.82;;;7.10;99.90;;;;;;5066063;28;20052;-66
2024/01/04 02:30:45;;;;;;;2.10;1.23;;;7.10;99.90;;;;;;5064469;28;20041;-66
2024/01/04 02:33:17;;;;;;;4.55;1.00;;;7.10;99.90;;;;;;5047924;28;20041;-67
2024/01/04 02:35:49;;;;;;;1.90;0.98;;;7.10;99.90;;;;;;5051961;28;20049;-66
2024/01/04 02:38:21;;;;;;;3.00;0.82;;;7.20;99.90;;;;;;5065818;28;20075;-67
2024/01/04 02:40:48;;;;;;;2.88;0.77;;;7.20;99.90;;;;;;5064036;28;20083;-66
2024/01/04 02:43:20;;;;;;;2.65;0.85;;;7.10;99.90;;;;;;5062129;28;20049;-67
2024/01/04 02:45:52;;;;;;;2.47;0.70;;;7.20;99.90;;;;;;5058801;28;20062;-66
2024/01/04 02:48:18;;;;;;;4.55;1.02;;;7.20;99.90;;;;;;5057106;28;20033;-66
2024/01/04 02:50:50;;;;;;;2.78;1.20;;;7.20;99.90;;;;;;5053316;28;20730;-66
2024/01/04 02:53:22;;;;;;;0.88;0.50;;;7.20;99.90;;;;;;5052839;28;20567;-67
2024/01/04 02:55:49;;;;;;;4.93;0.80;;;7.20;99.90;;;;;;5034534;28;20047;-66
2024/01/04 02:58:16;;;;;;;2.63;0.90;;;7.20;99.90;;;;;;5049056;28;20127;-66
2024/01/04 03:00:48;;;;;;;3.85;0.50;;;7.30;99.90;;;;;;5050133;28;20152;-67
2024/01/04 03:03:20;;;;;;;2.13;0.70;;;7.30;99.90;;;;;;5050069;28;20521;-66
2024/01/04 03:05:47;;;;;;;2.00;0.40;;;7.30;99.90;;;;;;5054899;28;20044;-66
2024/01/04 03:08:18;;;;;;;2.78;0.43;;;7.30;99.90;;;;;;5057043;28;20045;-66
2024/01/04 03:10:50;;;;;;;1.77;0.60;;;7.30;99.90;;;;;;5056657;28;20497;-66
2024/01/04 03:13:22;;;;;;;1.17;0.40;;;7.20;99.90;;;;;;5061053;28;20044;-66
2024/01/04 03:15:54;;;;;;;1.27;0.32;;;7.30;99.90;;;;;;5062583;28;20144;-66
2024/01/04 03:18:26;;;;;;;1.55;0.60;;;7.30;99.90;;;;;;5063354;28;20562;-67
2024/01/04 03:20:58;;;;;;;2.78;0.30;;;7.20;99.90;;;;;;5066668;28;20054;-67
2024/01/04 03:23:24;;;;;;;1.67;0.40;;;7.20;99.90;;;;;;5064912;28;20055;-67
2024/01/04 03:25:56;;;;;;;2.25;0.40;;;7.20;99.90;;;;;;5049701;28;20615;-67
2024/01/04 03:28:28;;;;;;;1.10;0.30;;;7.20;99.90;;;;;;5066649;28;20040;-67
2024/01/04 03:31:01;;;;;;;2.17;0.22;;;7.20;99.90;;;;;;5063533;28;20048;-67
2024/01/04 03:33:33;;;;;;;0.68;0.20;;;7.10;99.90;;;;;;5062038;28;20041;-66
2024/01/04 03:36:07;;;;;;;2.78;0.30;;;7.20;99.90;;;;;;5058754;28;20036;-66
2024/01/04 03:38:39;;;;;;;2.17;0.40;;;7.10;99.90;;;;;;5056509;28;20040;-66
2024/01/04 03:41:11;;;;;;;1.75;0.30;;;7.20;99.90;;;;;;5054867;28;20048;-67
2024/01/04 03:43:38;;;;;;;0.70;0.30;;;7.10;99.90;;;;;;5061405;28;20048;-74
2024/01/04 03:46:08;;;;;;;1.15;0.60;;;7.00;99.90;;;;;;5046977;28;20041;-67
2024/01/04 03:48:40;;;;;;;7.35;2.17;;;6.90;99.90;;;;;;5047512;28;20514;-67
2024/01/04 03:51:10;;;;;;;1.60;0.50;;;6.80;99.90;;;;;;5048719;28;20037;-66
2024/01/04 03:53:42;;;;;;;3.38;0.50;;;6.70;99.90;;;;;;5047894;28;20130;-67
2024/01/04 03:56:14;;;;;;;2.50;0.40;;;6.70;99.90;;;;;;5051539;28;20072;-67
2024/01/04 03:58:46;;;;;;;2.80;0.40;;;6.70;99.90;;;;;;5079496;28;20051;-67
2024/01/04 04:01:17;;;;;;;0.80;0.30;;;6.70;99.90;;;;;;5062148;28;20049;-68
2024/01/04 04:03:49;;;;;;;2.70;0.50;;;6.70;99.90;;;;;;5059279;28;20055;-68
2024/01/04 04:06:21;;;;;;;1.08;0.50;;;6.70;99.90;;;;;;5058365;28;20080;-68
2024/01/04 04:08:53;;;;;;;4.28;0.80;;;6.70;99.90;;;;;;5052921;28;20068;-67
2024/01/04 04:11:20;;;;;;;0.75;0.30;;;6.70;99.90;;;;;;5053848;28;20123;-67
2024/01/04 04:13:52;;;;;;;1.88;0.55;;;6.70;99.90;;;;;;5064394;28;20045;-67
2024/01/04 04:16:19;;;;;;;1.23;0.35;;;6.80;99.90;;;;;;5066123;28;20629;-67
2024/01/04 04:18:50;;;;;;;3.67;0.50;;;6.90;99.90;;;;;;5068201;28;20539;-66
2024/01/04 04:21:23;;;;;;;1.75;0.38;;;6.90;99.90;;;;;;5066647;28;20056;-67
2024/01/04 04:23:55;;;;;;;1.02;0.47;;;6.80;99.90;;;;;;5063726;28;20041;-68
2024/01/04 04:26:27;;;;;;;2.75;0.40;;;6.90;99.90;;;;;;5032216;28;20064;-67
2024/01/04 04:28:59;;;;;;;2.03;0.50;;;6.80;99.90;;;;;;5059428;28;20060;-67
2024/01/04 04:31:30;;;;;;;2.60;0.73;;;6.90;99.90;;;;;;5058590;28;20052;-67
2024/01/04 04:33:57;;;;;;;2.13;0.68;;;6.80;99.90;;;;;;5059424;28;20412;-66
2024/01/04 04:36:24;;;;;;;1.50;0.30;;;6.80;99.90;;;;;;5057950;28;20055;-66
2024/01/04 04:39:00;;;;;;;3.05;0.50;;;6.70;99.90;;;;;;5053250;28;20040;-68
2024/01/04 04:41:27;;;;;;;1.30;0.63;;;6.70;99.90;;;;;;5053872;28;20496;-66
2024/01/04 04:43:59;;;;;;;1.17;0.40;;;6.60;99.90;;;;;;5083729;28;20052;-67
2024/01/04 04:46:31;;;;;;;4.93;0.45;;;6.60;99.90;;;;;;5069628;28;20053;-65
2024/01/04 04:49:02;;;;;;;4.25;0.82;;;6.60;99.90;;;;;;5068282;28;20044;-66
2024/01/04 04:51:29;;;;;;;3.22;0.50;;;6.50;99.90;;;;;;5058466;28;20498;-66
2024/01/04 04:53:56;;;;;;;3.80;0.95;;;6.50;99.90;;;;;;5060050;28;20044;-67
2024/01/04 04:56:28;;;;;;;4.32;0.90;;;6.40;99.90;;;;;;5060856;28;20054;-66
2024/01/04 04:59:00;;;;;;;1.75;0.60;;;6.40;99.90;;;;;;5060767;28;20059;-67
2024/01/04 05:01:32;;;;;;;2.53;0.60;;;6.40;99.90;;;;;;5057961;28;20222;-66
2024/01/04 05:04:04;;;;;;;1.52;0.45;;;6.40;99.90;;;;;;5050373;28;20056;-68
2024/01/04 05:06:36;;;;;;;1.30;0.40;;;6.40;99.90;;;;;;5069934;28;20046;-67
2024/01/04 05:09:08;;;;;;;2.83;0.50;;;6.40;99.90;;;;;;5071648;28;20052;-67
2024/01/04 05:11:40;;;;;;;4.53;0.30;;;6.40;99.90;;;;;;5070136;28;20048;-67
2024/01/04 05:14:11;;;;;;;3.17;0.57;;;6.30;99.90;;;;;;5052144;28;20068;-67
2024/01/04 05:16:44;;;;;;;2.90;1.05;;;6.20;99.90;;;;;;5066366;28;20421;-67
2024/01/04 05:19:16;;;;;;;2.13;0.55;;;6.20;99.90;;;;;;5056809;28;20047;-66
2024/01/04 05:21:43;;;;;;;3.17;0.60;;;6.20;99.90;;;;;;5060842;28;20036;-66
2024/01/04 05:24:14;;;;;;;2.70;0.65;;;6.20;99.90;;;;;;5059419;28;20044;-68
2024/01/04 05:26:47;;;;;;;6.88;0.52;;;6.20;99.90;;;;;;5063034;28;20039;-67
2024/01/04 05:29:18;;;;;;;2.67;0.60;;;6.20;99.90;;;;;;5052990;28;20038;-66
2024/01/04 05:31:50;;;;;;;3.47;0.60;;;6.20;99.90;;;;;;5054189;28;20045;-67
2024/01/04 05:34:22;;;;;;;3.15;1.67;;;6.20;99.90;;;;;;5053937;28;20122;-67
2024/01/04 05:36:54;;;;;;;4.85;0.70;;;6.20;99.90;;;;;;5052784;28;20128;-67
2024/01/04 05:39:26;;;;;;;5.50;0.75;;;6.20;99.90;;;;;;5084887;28;20049;-67
2024/01/04 05:41:58;;;;;;;4.03;0.73;;;6.20;99.90;;;;;;5068155;28;20396;-67
2024/01/04 05:44:30;;;;;;;2.88;0.40;;;6.20;99.90;;;;;;5064184;28;20051;-67
2024/01/04 05:47:02;;;;;;;4.53;0.50;;;6.20;99.90;;;;;;5057730;28;20036;-67
2024/01/04 05:49:34;;;;;;;1.60;0.50;;;6.20;99.90;;;;;;5060553;28;20416;-67
2024/01/04 05:52:06;;;;;;;1.35;0.50;;;6.20;99.90;;;;;;5063581;28;20076;-66
2024/01/04 05:54:39;;;;;;;1.13;0.52;;;6.20;99.90;;;;;;5062970;28;20032;-66
2024/01/04 05:57:10;;;;;;;1.95;0.57;;;6.30;99.90;;;;;;5038152;28;20580;-67
2024/01/04 05:59:42;;;;;;;6.03;1.80;;;6.20;99.90;;;;;;5068971;28;20094;-67
2024/01/04 06:02:14;;;;;;;2.33;0.70;;;6.20;99.90;;;;;;5069817;28;20515;-67
2024/01/04 06:04:46;;;;;;;1.35;0.30;;;6.20;99.90;;;;;;5068980;28;20067;-68
2024/01/04 06:07:13;;;;;;;0.60;0.20;;;6.20;99.90;;;;;;5065001;28;20041;-68
2024/01/04 06:09:45;;;;;;;0.68;0.20;;;6.30;99.90;;;;;;5055149;28;20496;-67
2024/01/04 06:12:17;;;;;;;2.22;0.22;;;6.30;99.90;;;;;;5063406;28;20094;-67
2024/01/04 06:14:50;;;;;;;1.75;0.43;;;6.30;99.90;;;;;;5040680;28;20564;-68
2024/01/04 06:17:22;;;;;;;3.42;0.50;;;6.30;99.90;;;;;;5057260;28;20052;-67
2024/01/04 06:19:49;;;;;;;1.42;0.40;;;6.30;99.90;;;;;;5040498;28;20052;-68
2024/01/04 06:22:20;;;;;;;2.22;0.70;;;6.30;99.90;;;;;;5065898;28;20490;-67
2024/01/04 06:24:52;;;;;;;3.25;0.70;;;6.40;99.90;;;;;;5067558;28;20041;-67
2024/01/04 06:27:24;;;;;;;1.25;0.30;;;6.50;99.90;;;;;;5069050;28;20048;-67
2024/01/04 06:29:56;;;;;;;1.92;0.70;;;6.50;99.90;;;;;;5070671;28;20048;-67
2024/01/04 06:32:28;;;;;;;2.83;0.47;;;6.50;99.90;;;;;;5068707;28;20451;-67
2024/01/04 06:34:59;;;;;;;1.67;0.30;;;6.50;99.90;;;;;;5066777;28;20140;-68
2024/01/04 06:37:31;;;;;;;3.60;0.43;;;6.60;99.90;;;;;;5056275;28;20175;-67
2024/01/04 06:40:05;;;;;;;1.73;0.47;;;6.60;99.90;;;;;;5058165;28;20413;-67
2024/01/04 06:42:37;;;;;;;1.52;0.40;;;6.60;99.90;;;;;;5060152;28;20072;-68
2024/01/04 06:45:05;;;;;;;1.95;0.60;;;6.70;99.90;;;;;;5058262;28;20068;-67
2024/01/04 06:47:37;;;;;;;1.35;0.50;;;6.60;99.90;;;;;;5055634;28;20045;-67
2024/01/04 06:50:09;;;;;;;4.97;0.65;;;6.60;99.90;;;;;;5050500;28;20041;-68
2024/01/04 06:52:41;;;;;;;3.28;0.28;;;6.60;99.90;;;;;;5035755;28;20045;-67
2024/01/04 06:55:14;;;;;;;2.58;0.57;;;6.60;99.90;;;;;;5050422;28;20047;-66
2024/01/04 06:57:46;;;;;;;1.95;0.50;;;6.70;99.90;;;;;;5083875;28;20082;-66
2024/01/04 07:00:18;;;;;;;4.25;0.55;;;6.70;99.90;;;;;;5081622;28;20040;-67
2024/01/04 07:02:49;;;;;;;3.58;0.60;;;6.70;99.90;;;;;;5046321;28;20045;-67
2024/01/04 07:05:16;;;;;;;2.47;0.60;;;6.70;99.90;;;;;;5049303;28;20058;-67
2024/01/04 07:07:48;;;;;;;2.22;0.40;;;6.70;99.90;;;;;;5048551;28;20041;-68
2024/01/04 07:10:15;;;;;;;1.40;0.85;;;6.70;99.90;;;;;;5056200;28;20044;-68
2024/01/04 07:12:47;;;;;;;1.75;0.30;;;6.70;99.90;;;;;;5059383;28;20033;-67
2024/01/04 07:15:19;;;;;;;4.32;0.40;;;6.70;99.90;;;;;;5057317;28;20390;-67
2024/01/04 07:17:51;;;;;;;3.35;0.50;;;6.70;99.90;;;;;;5045967;28;20413;-66
2024/01/04 07:20:23;;;;;;;1.50;0.70;;;6.60;99.90;;;;;;5049319;28;20052;-67
2024/01/04 07:22:55;;;;;;;2.88;0.47;;;6.60;99.90;;;;;;5045690;28;20053;-67
2024/01/04 07:25:27;;;;;;;3.70;0.40;;;6.50;99.90;;;;;;5050794;28;20512;-66
2024/01/04 07:27:59;;;;;;;1.75;1.05;;;6.50;99.90;;;;;;5055810;28;20045;-67
2024/01/04 07:30:31;;;;;;;2.08;1.40;;;6.50;99.90;;;;;;5058268;28;20033;-67
2024/01/04 07:33:03;;;;;;;3.45;0.60;;;6.50;99.90;;;;;;5055700;28;20592;-67
2024/01/04 07:35:35;;;;;;;1.17;0.40;;;6.50;99.90;;;;;;5055316;28;20531;-67
2024/01/04 07:38:07;;;;;;;0.95;0.20;;;6.50;99.90;;;;;;5058393;28;20044;-67
2024/01/04 07:40:39;;;;;;;0.82;0.30;;;6.40;99.90;;;;;;5057111;28;20049;-67
2024/01/04 07:43:11;;;;;;;0.70;0.30;;;6.50;99.90;;;;;;5050721;28;20045;-67
2024/01/04 07:45:43;;;;;;;1.17;0.73;;;6.50;99.90;;;;;;5054464;28;20588;-67
2024/01/04 07:48:11;;;;;;;0.60;0.35;;;6.50;99.90;;;;;;5049906;28;20400;-66
2024/01/04 07:50:43;;;;;;;1.25;0.30;;;6.60;99.90;;;;;;5034291;28;20511;-67
2024/01/04 07:53:15;;;;;;;1.40;0.73;;;6.60;99.90;;;;;;5053952;28;20086;-66
2024/01/04 07:55:47;;;;;;;0.98;0.47;;;6.60;99.90;;;;;;5057445;28;20128;-68
2024/01/04 07:58:14;;;;;;;0.77;0.25;;;6.60;99.90;;;;;;5053572;28;20047;-67
2024/01/04 08:00:40;;;;;;;3.50;0.47;;;6.60;99.90;;;;;;5057207;28;20160;-66
2024/01/04 08:03:07;;;;;;;1.15;0.30;;;6.60;99.90;;;;;;5052919;28;20512;-67
2024/01/04 08:05:39;;;;;;;0.63;0.17;;;6.60;99.90;;;;;;5059106;28;20060;-67
2024/01/04 08:08:11;;;;;;;2.85;0.60;;;6.60;99.90;;;;;;5052562;28;20033;-66
2024/01/04 08:10:43;;;;;;;3.60;0.40;;;6.60;99.90;;;;;;5050057;28;20051;-67
2024/01/04 08:13:16;;;;;;;2.00;0.40;;;6.60;99.90;;;;;;5049746;28;20055;-67
2024/01/04 08:15:50;;;;;;;0.75;0.32;;;6.60;99.90;;;;;;5061555;28;20037;-66
2024/01/04 08:18:21;;;;;;;4.63;0.50;;;6.60;99.90;;;;;;5064776;28;20140;-67
2024/01/04 08:20:53;;;;;;;2.30;0.98;;;6.60;99.90;;;;;;5058612;28;20049;-66
2024/01/04 08:23:25;;;;;;;3.85;0.35;;;6.70;99.90;;;;;;5053602;28;20060;-67
2024/01/04 08:25:57;;;;;;;2.35;0.50;;;6.70;99.90;;;;;;5056348;28;20428;-67
2024/01/04 08:28:29;;;;;;;4.00;0.70;;;6.70;99.90;;;;;;5056831;28;20045;-67
2024/01/04 08:31:01;;;;;;;3.50;0.65;;;6.70;99.90;;;;;;5054343;28;20060;-67
2024/01/04 08:33:33;;;;;;;0.68;0.30;;;6.80;99.90;;;;;;5055061;28;20037;-67
2024/01/04 08:36:05;;;;;;;1.73;0.50;;;6.80;99.90;;;;;;5083029;23;20096;-64
2024/01/04 08:38:37;;;;;;;1.05;0.40;;;6.80;99.90;;;;;;5007580;28;20038;-65
2024/01/04 08:41:08;;;;;;;2.78;0.80;;;6.80;99.90;;;;;;5005585;28;20503;-65
2024/01/04 08:43:41;;;;;;;2.75;0.40;;;6.80;99.90;;;;;;5008905;28;20046;-65
2024/01/04 08:46:12;;;;;;;2.80;1.67;;;6.80;99.90;;;;;;4993322;28;20042;-65
2024/01/04 08:48:44;;;;;;;6.00;0.80;;;6.80;99.90;;;;;;5024980;28;20406;-64
2024/01/04 08:51:16;;;;;;;2.63;1.05;;;6.80;99.90;;;;;;5024422;28;20038;-64
2024/01/04 08:53:49;;;;;;;1.83;0.93;;;6.90;99.90;;;;;;5024016;28;20042;-64
2024/01/04 08:56:19;;;;;;;1.60;0.63;;;6.90;99.90;;;;;;5020441;28;20046;-64
2024/01/04 08:58:51;;;;;;;2.00;0.70;;;6.90;99.90;;;;;;5021543;28;20038;-64
2024/01/04 09:01:22;;;;;;;2.67;0.85;;;6.90;99.90;;;;;;5016435;28;20042;-64
2024/01/04 09:03:55;;;;;;;2.50;0.75;;;6.90;99.90;;;;;;5022928;28;20074;-64
2024/01/04 09:06:28;;;;;;;4.95;1.65;;;6.90;99.90;;;;;;5024450;28;20052;-65
2024/01/04 09:09:05;;;;;;;7.03;1.10;;;6.90;99.90;;;;;;5021893;28;20128;-64
2024/01/04 09:11:41;;;;;;;2.50;0.90;;;6.80;99.90;;;;;;5023099;28;20049;-64
2024/01/04 09:14:13;;;;;;;5.45;1.50;;;6.80;99.90;;;;;;5016794;28;20042;-64
2024/01/04 09:16:46;;;;;;;2.33;0.60;;;6.80;99.90;;;;;;5022984;28;20049;-64
2024/01/04 09:19:19;;;;;;;3.80;0.80;;;6.70;99.90;;;;;;5022711;28;20042;-65
2024/01/04 09:21:47;;;;;;;1.73;0.60;;;6.80;99.90;;;;;;5024625;28;20783;-64
2024/01/04 09:24:20;;;;;;;3.10;0.80;;;6.80;99.90;;;;;;5005694;28;20038;-65
2024/01/04 09:26:51;;;;;;;3.00;0.50;;;6.80;99.90;;;;;;5032106;28;20069;-64
2024/01/04 09:29:23;;;;;;;4.03;1.15;;;6.80;99.90;;;;;;5027535;28;20046;-65
2024/01/04 09:31:55;;;;;;;4.20;0.80;;;6.80;99.90;;;;;;5022386;28;20046;-65
2024/01/04 09:34:24;;;;;;;3.80;0.68;;;6.80;99.90;;;;;;5021759;28;20038;-65
2024/01/04 09:36:56;;;;;;;2.55;1.08;;;6.80;99.90;;;;;;5019899;28;20514;-64
2024/01/04 09:39:27;;;;;;;2.97;0.98;;;6.80;99.90;;;;;;5016662;28;20123;-64
2024/01/04 09:42:00;;;;;;;4.68;0.93;;;6.90;99.90;;;;;;5028362;28;20049;-64
2024/01/04 09:44:33;;;;;;;6.47;0.70;;;6.90;99.90;;;;;;5022821;28;20061;-64
2024/01/04 09:47:07;;;;;;;2.45;0.75;;;6.90;99.90;;;;;;5023811;28;20042;-64
2024/01/04 09:49:40;;;;;;;2.10;0.80;;;6.90;99.90;;;;;;5022543;28;20059;-64
2024/01/04 09:52:12;;;;;;;2.92;1.25;;;7.00;99.90;;;;;;5020894;28;20033;-64
2024/01/04 09:54:46;;;;;;;6.13;0.90;;;6.90;99.90;;;;;;5014789;28;20494;-65
2024/01/04 09:57:19;;;;;;;;;;;6.90;99.90;;;;;;5015614;28;20032;-65
2024/01/04 09:59:50;;;;;;;2.88;0.60;;;7.00;99.90;;;;;;5019911;28;19933;-65
2024/01/04 10:02:20;;;;;;;1.92;0.50;;;7.00;99.90;;;;;;5017431;28;20038;-65
2024/01/04 10:04:52;;;;;;;3.10;0.73;;;7.00;99.90;;;;;;5026536;28;20149;-65
2024/01/04 10:07:27;;;;;;;2.65;0.60;;;7.00;99.90;;;;;;5037514;28;20041;-64
2024/01/04 10:10:16;;;;;;;4.88;1.90;;;7.10;99.90;;;;;;5018744;28;20050;-64
2024/01/04 10:12:49;;;;;;;4.70;1.23;;;7.10;99.90;;;;;;5020203;28;20048;-65
2024/01/04 10:15:21;;;;;;;2.65;0.68;;;7.10;99.90;;;;;;5024796;28;20046;-65
2024/01/04 10:17:54;;;;;;;4.00;0.80;;;7.10;99.90;;;;;;5019014;28;20739;-66
2024/01/04 10:20:26;;;;;;;2.17;0.65;;;7.20;99.90;;;;;;5020624;28;20034;-65
2024/01/04 10:22:54;;;;;;;6.80;0.90;;;7.30;99.90;;;;;;5024910;28;20050;-66
2024/01/04 10:25:26;;;;;;;3.42;0.80;;;7.30;99.90;;;;;;5018467;28;20038;-65
2024/01/04 10:27:59;;;;;;;4.32;1.02;;;7.40;99.90;;;;;;5021656;28;20403;-65
2024/01/04 10:30:31;;;;;;;7.03;0.90;;;7.50;99.90;;;;;;5004931;28;20038;-65
2024/01/04 10:32:58;;;;;;;2.63;0.90;;;7.50;99.90;;;;;;5022630;28;20038;-64
2024/01/04 10:35:29;;;;;;;3.55;0.63;;;7.50;99.90;;;;;;5022794;28;20137;-65
2024/01/04 10:38:01;;;;;;;2.78;0.75;;;7.50;99.90;;;;;;5022145;28;20037;-64
2024/01/04 10:40:33;;;;;;;3.00;0.60;;;7.50;99.90;;;;;;5026715;28;20836;-64
2024/01/04 10:43:05;;;;;;;2.10;0.60;;;7.50;99.90;;;;;;5019293;28;20710;-64
2024/01/04 10:45:37;;;;;;;4.65;0.73;;;7.60;99.90;;;;;;5028552;28;20120;-64
2024/01/04 10:48:14;;;;;;;3.65;0.60;;;7.60;99.90;;;;;;5013932;28;20095;-65
2024/01/04 10:50:46;;;;;;;2.17;0.80;;;7.60;99.90;;;;;;5022842;28;20041;-64
2024/01/04 10:53:13;;;;;;;5.20;1.02;;;7.70;99.90;;;;;;5019057;28;20052;-64
2024/01/04 10:55:49;;;;;;;4.65;0.60;;;7.70;99.90;;;;;;5017637;28;20050;-64
2024/01/04 10:58:16;;;;;;;4.28;0.68;;;7.70;99.90;;;;;;5024753;28;20068;-64
2024/01/04 11:00:44;;;;;;;4.28;0.93;;;7.70;99.90;;;;;;5023937;28;20048;-64
2024/01/04 11:03:11;;;;;;;6.60;0.63;;;7.70;99.90;;;;;;5024297;28;20039;-65
2024/01/04 11:05:44;;;;;;;4.40;1.00;;;7.80;99.90;;;;;;5020583;28;20034;-64
2024/01/04 11:08:17;;;;;;;5.90;0.80;;;7.70;99.90;;;;;;5020359;28;20034;-64
2024/01/04 11:10:50;;;;;;;2.67;0.95;;;7.80;99.90;;;;;;5019759;28;20068;-65
2024/01/04 11:13:22;;;;;;;;;;;7.70;99.90;;;;;;5021388;28;20080;-64
2024/01/04 11:15:58;;;;;;;3.80;0.60;;;7.80;99.90;;;;;;5039864;28;19964;-65
2024/01/04 11:18:58;;;;;;;7.97;1.00;;;7.80;99.90;;;;;;5008633;28;20042;-64
2024/01/04 11:21:36;;;;;;;3.38;0.55;;;7.80;99.90;;;;;;5026349;28;20117;-64
2024/01/04 11:24:24;;;;;;;5.07;0.70;;;7.80;99.90;;;;;;5008881;28;20052;-64
2024/01/04 11:26:59;;;;;;;5.22;1.08;;;7.80;99.90;;;;;;5025817;28;20133;-64
2024/01/04 11:29:27;;;;;;;4.47;0.80;;;7.90;99.90;;;;;;5032534;28;20498;-64
2024/01/04 11:31:59;;;;;;;4.80;0.88;;;7.90;99.90;;;;;;5024431;28;20049;-64
2024/01/04 11:34:31;;;;;;;6.88;1.13;;;8.00;99.90;;;;;;5023631;28;20029;-64
2024/01/04 11:37:32;;;;;;;1.50;0.50;;;8.00;99.90;;;;;;5019704;28;20056;-64
2024/01/04 11:40:06;;;;;;;3.47;0.70;;;8.10;99.90;;;;;;5010678;28;20069;-64
2024/01/04 11:42:40;;;;;;;3.03;0.60;;;8.20;99.90;;;;;;5022212;28;20091;-64
2024/01/04 11:45:19;;;;;;;3.03;0.60;;;8.10;99.90;;;;;;5020831;28;20489;-64
2024/01/04 11:47:52;;;;;;;4.72;0.57;;;8.10;99.90;;;;;;5019011;28;20488;-64
2024/01/04 11:50:26;;;;;;;4.90;0.80;;;8.10;99.90;;;;;;5018719;28;20038;-64
2024/01/04 11:53:06;;;;;;;2.60;0.70;;;8.10;99.90;;;;;;5018289;28;20052;-64
2024/01/04 11:55:37;;;;;;;2.65;0.50;;;8.20;99.90;;;;;;5021555;28;20055;-64
2024/01/04 11:58:12;;;;;;;4.45;0.85;;;8.20;99.90;;;;;;5039592;28;20033;-64
2024/01/04 12:00:49;;;;;;;4.40;0.77;;;8.20;99.90;;;;;;5016431;28;20146;-64
2024/01/04 12:03:21;;;;;;;3.97;0.77;;;8.20;99.90;;;;;;5026743;28;20533;-64
2024/01/04 12:05:56;;;;;;;5.25;1.05;;;8.20;99.90;;;;;;5020756;28;20050;-64
2024/01/04 12:08:28;;;;;;;2.53;0.90;;;8.10;99.90;;;;;;5016412;28;20493;-64
2024/01/04 12:11:04;;;;;;;1.90;0.57;;;8.10;99.90;;;;;;5009450;28;20050;-64
2024/01/04 12:13:36;;;;;;;3.50;0.50;;;8.10;99.90;;;;;;5018066;28;20577;-65
2024/01/04 12:16:06;;;;;;;6.50;1.30;;;8.10;99.90;;;;;;5022382;28;20515;-64
2024/01/04 12:18:38;;;;;;;4.05;0.90;;;8.20;99.90;;;;;;5020939;28;20041;-64
2024/01/04 12:21:12;;;;;;;3.95;1.95;;;8.20;99.90;;;;;;5023733;28;20045;-64
2024/01/04 12:23:44;;;;;;;3.13;0.60;;;8.20;99.90;;;;;;5024007;28;20037;-63
2024/01/04 12:26:16;;;;;;;2.63;1.02;;;8.10;99.90;;;;;;5024195;28;20049;-64
2024/01/04 12:28:44;;;;;;;2.85;0.70;;;8.10;99.90;;;;;;5024804;28;20049;-64
2024/01/04 12:31:16;;;;;;;4.10;0.80;;;8.10;99.90;;;;;;5021363;28;20060;-64
2024/01/04 12:33:51;;;;;;;3.55;0.98;;;8.00;99.90;;;;;;5019556;28;20060;-64
2024/01/04 12:36:23;;;;;;;3.95;1.20;;;8.00;99.90;;;;;;5022565;28;20048;-64
2024/01/04 12:39:06;;;;;;;5.67;0.80;;;8.00;99.90;;;;;;5017493;28;20157;-65
2024/01/04 12:41:33;;;;;;;2.50;0.57;;;8.00;99.90;;;;;;5021003;28;20045;-64
2024/01/04 12:44:08;;;;;;;3.60;0.50;;;8.10;99.90;;;;;;5019722;28;20124;-65
2024/01/04 12:46:43;;;;;;;3.78;0.70;;;8.10;99.90;;;;;;5015318;28;20433;-64
2024/01/04 12:49:15;;;;;;;2.65;0.65;;;8.20;99.90;;;;;;5022647;28;20523;-64
2024/01/04 12:51:47;;;;;;;4.90;0.80;;;8.20;99.90;;;;;;5024970;28;20044;-64
2024/01/04 12:54:19;;;;;;;4.10;2.15;;;8.10;99.90;;;;;;5030270;28;20084;-66
2024/01/04 12:56:46;;;;;;;4.88;2.13;;;8.20;99.90;;;;;;5025212;28;20108;-65
2024/01/04 12:59:19;;;;;;;3.40;1.20;;;8.10;99.90;;;;;;5027584;28;20577;-66
2024/01/04 13:01:51;;;;;;;3.05;1.10;;;7.90;99.90;;;;;;5024513;28;20121;-65
2024/01/04 13:04:22;;;;;;;1.67;1.10;;;7.80;99.90;;;;;;5020287;28;20038;-65
2024/01/04 13:06:49;;;;;;;2.97;0.60;;;7.70;99.90;;;;;;5027550;28;20050;-65
2024/01/04 13:09:21;;;;;;;3.17;0.80;;;7.60;99.90;;;;;;5008679;28;20054;-66
2024/01/04 13:11:53;;;;;;;2.42;0.60;;;7.70;99.90;;;;;;5027168;28;20049;-65
2024/01/04 13:14:19;;;;;;;3.58;0.70;;;7.70;99.90;;;;;;5028148;28;20522;-66
2024/01/04 13:16:50;;;;;;;4.68;0.63;;;7.80;99.90;;;;;;5016311;28;20057;-65
2024/01/04 13:19:22;;;;;;;2.15;0.98;;;7.90;99.90;;;;;;5026748;28;20060;-65
2024/01/04 13:21:55;;;;;;;1.08;0.40;;;8.00;99.90;;;;;;5029610;28;20041;-65